sensor_id;sensor_type;location;lat;lon;timestamp;P1;durP1;ratioP1;P2;durP2;ratioP2
40162;SDS011;25881;47.462;19.304;2023-02-10T00:01:09;53.70;;;28.48;;
40162;SDS011;25881;47.462;19.304;2023-02-10T00:03:34;51.63;;;27.08;;
40162;SDS011;25881;47.462;19.304;2023-02-10T00:06:02;48.95;;;24.42;;
40162;SDS011;25881;47.462;19.304;2023-02-10T00:08:28;53.75;;;26.13;;
40162;SDS011;25881;47.462;19.304;2023-02-10T00:11:00;47.63;;;26.20;;
40162;SDS011;25881;47.462;19.304;2023-02-10T00:13:26;46.90;;;25.15;;
40162;SDS011;25881;47.462;19.304;2023-02-10T00:15:51;51.30;;;27.45;;
40162;SDS011;25881;47.462;19.304;2023-02-10T00:18:17;50.70;;;25.65;;
40162;SDS011;25881;47.462;19.304;2023-02-10T00:20:42;50.78;;;26.67;;
40162;SDS011;25881;47.462;19.304;2023-02-10T00:23:08;62.53;;;29.75;;
40162;SDS011;25881;47.462;19.304;2023-02-10T00:25:36;56.13;;;26.80;;
40162;SDS011;25881;47.462;19.304;2023-02-10T00:28:02;49.67;;;26.70;;
40162;SDS011;25881;47.462;19.304;2023-02-10T00:30:27;54.38;;;27.85;;
40162;SDS011;25881;47.462;19.304;2023-02-10T00:32:53;53.28;;;25.95;;
40162;SDS011;25881;47.462;19.304;2023-02-10T00:35:18;53.40;;;26.17;;
40162;SDS011;25881;47.462;19.304;2023-02-10T00:37:43;53.67;;;26.63;;
40162;SDS011;25881;47.462;19.304;2023-02-10T00:40:08;46.67;;;23.47;;
40162;SDS011;25881;47.462;19.304;2023-02-10T00:42:34;41.30;;;22.77;;
40162;SDS011;25881;47.462;19.304;2023-02-10T00:44:59;46.37;;;24.00;;
40162;SDS011;25881;47.462;19.304;2023-02-10T00:47:24;42.77;;;22.90;;
40162;SDS011;25881;47.462;19.304;2023-02-10T00:49:51;43.42;;;21.50;;
40162;SDS011;25881;47.462;19.304;2023-02-10T00:52:16;40.85;;;20.77;;
40162;SDS011;25881;47.462;19.304;2023-02-10T00:54:41;44.20;;;21.03;;
40162;SDS011;25881;47.462;19.304;2023-02-10T00:57:07;42.30;;;20.67;;
40162;SDS011;25881;47.462;19.304;2023-02-10T00:59:33;44.53;;;21.05;;
40162;SDS011;25881;47.462;19.304;2023-02-10T01:01:58;39.38;;;21.00;;
40162;SDS011;25881;47.462;19.304;2023-02-10T01:04:23;36.63;;;19.13;;
40162;SDS011;25881;47.462;19.304;2023-02-10T01:06:48;37.67;;;20.38;;
40162;SDS011;25881;47.462;19.304;2023-02-10T01:09:14;39.40;;;19.57;;
40162;SDS011;25881;47.462;19.304;2023-02-10T01:11:39;39.90;;;18.17;;
40162;SDS011;25881;47.462;19.304;2023-02-10T01:14:04;39.77;;;20.17;;
40162;SDS011;25881;47.462;19.304;2023-02-10T01:16:29;41.05;;;19.67;;
40162;SDS011;25881;47.462;19.304;2023-02-10T01:18:55;37.90;;;20.30;;
40162;SDS011;25881;47.462;19.304;2023-02-10T01:21:20;36.47;;;19.00;;
40162;SDS011;25881;47.462;19.304;2023-02-10T01:23:46;42.83;;;22.20;;
40162;SDS011;25881;47.462;19.304;2023-02-10T01:26:11;41.30;;;21.35;;
40162;SDS011;25881;47.462;19.304;2023-02-10T01:28:37;45.97;;;22.52;;
40162;SDS011;25881;47.462;19.304;2023-02-10T01:31:10;47.05;;;23.58;;
40162;SDS011;25881;47.462;19.304;2023-02-10T01:33:35;45.33;;;24.27;;
40162;SDS011;25881;47.462;19.304;2023-02-10T01:36:05;46.72;;;22.23;;
40162;SDS011;25881;47.462;19.304;2023-02-10T01:38:30;47.17;;;24.10;;
40162;SDS011;25881;47.462;19.304;2023-02-10T01:40:56;49.10;;;23.85;;
40162;SDS011;25881;47.462;19.304;2023-02-10T01:43:21;46.20;;;22.45;;
40162;SDS011;25881;47.462;19.304;2023-02-10T01:45:46;47.90;;;24.83;;
40162;SDS011;25881;47.462;19.304;2023-02-10T01:48:13;48.55;;;24.15;;
40162;SDS011;25881;47.462;19.304;2023-02-10T01:50:59;46.58;;;23.33;;
40162;SDS011;25881;47.462;19.304;2023-02-10T01:53:25;46.25;;;24.10;;
40162;SDS011;25881;47.462;19.304;2023-02-10T01:55:51;46.13;;;23.52;;
40162;SDS011;25881;47.462;19.304;2023-02-10T01:58:18;45.65;;;22.63;;
40162;SDS011;25881;47.462;19.304;2023-02-10T02:00:43;41.45;;;22.42;;
40162;SDS011;25881;47.462;19.304;2023-02-10T02:03:09;49.67;;;24.43;;
40162;SDS011;25881;47.462;19.304;2023-02-10T02:05:35;40.30;;;22.85;;
40162;SDS011;25881;47.462;19.304;2023-02-10T02:08:06;38.10;;;19.98;;
40162;SDS011;25881;47.462;19.304;2023-02-10T02:10:35;45.00;;;22.05;;
40162;SDS011;25881;47.462;19.304;2023-02-10T02:13:03;46.08;;;24.77;;
40162;SDS011;25881;47.462;19.304;2023-02-10T02:15:37;43.47;;;22.60;;
40162;SDS011;25881;47.462;19.304;2023-02-10T02:36:18;63.97;;;31.37;;
40162;SDS011;25881;47.462;19.304;2023-02-10T02:38:45;61.30;;;28.83;;
40162;SDS011;25881;47.462;19.304;2023-02-10T02:41:10;55.13;;;28.25;;
40162;SDS011;25881;47.462;19.304;2023-02-10T02:43:36;57.43;;;28.57;;
40162;SDS011;25881;47.462;19.304;2023-02-10T02:48:37;55.67;;;30.52;;
40162;SDS011;25881;47.462;19.304;2023-02-10T02:51:20;58.08;;;29.60;;
40162;SDS011;25881;47.462;19.304;2023-02-10T02:54:24;56.22;;;28.13;;
40162;SDS011;25881;47.462;19.304;2023-02-10T02:59:13;47.63;;;24.67;;
40162;SDS011;25881;47.462;19.304;2023-02-10T03:01:43;47.83;;;23.42;;
40162;SDS011;25881;47.462;19.304;2023-02-10T03:04:11;49.75;;;24.80;;
40162;SDS011;25881;47.462;19.304;2023-02-10T03:06:37;42.45;;;22.95;;
40162;SDS011;25881;47.462;19.304;2023-02-10T03:09:02;45.83;;;22.27;;
40162;SDS011;25881;47.462;19.304;2023-02-10T03:11:27;40.75;;;20.90;;
40162;SDS011;25881;47.462;19.304;2023-02-10T03:13:52;39.10;;;21.27;;
40162;SDS011;25881;47.462;19.304;2023-02-10T03:16:18;39.93;;;20.70;;
40162;SDS011;25881;47.462;19.304;2023-02-10T03:18:43;34.30;;;19.60;;
40162;SDS011;25881;47.462;19.304;2023-02-10T03:21:08;37.93;;;18.20;;
40162;SDS011;25881;47.462;19.304;2023-02-10T03:23:33;38.70;;;20.83;;
40162;SDS011;25881;47.462;19.304;2023-02-10T03:25:59;35.67;;;17.77;;
40162;SDS011;25881;47.462;19.304;2023-02-10T03:28:24;32.60;;;16.77;;
40162;SDS011;25881;47.462;19.304;2023-02-10T03:30:50;40.83;;;20.13;;
40162;SDS011;25881;47.462;19.304;2023-02-10T03:33:16;45.80;;;23.80;;
40162;SDS011;25881;47.462;19.304;2023-02-10T03:35:42;44.53;;;23.80;;
40162;SDS011;25881;47.462;19.304;2023-02-10T03:38:07;48.97;;;24.35;;
40162;SDS011;25881;47.462;19.304;2023-02-10T03:40:32;50.65;;;25.05;;
40162;SDS011;25881;47.462;19.304;2023-02-10T03:42:58;46.50;;;22.77;;
40162;SDS011;25881;47.462;19.304;2023-02-10T03:45:23;46.83;;;24.17;;
40162;SDS011;25881;47.462;19.304;2023-02-10T03:47:48;44.25;;;22.52;;
40162;SDS011;25881;47.462;19.304;2023-02-10T03:50:14;44.73;;;22.97;;
40162;SDS011;25881;47.462;19.304;2023-02-10T03:52:39;43.22;;;22.10;;
40162;SDS011;25881;47.462;19.304;2023-02-10T03:55:04;40.85;;;22.08;;
40162;SDS011;25881;47.462;19.304;2023-02-10T03:57:29;43.30;;;21.67;;
40162;SDS011;25881;47.462;19.304;2023-02-10T03:59:55;40.13;;;21.43;;
40162;SDS011;25881;47.462;19.304;2023-02-10T04:02:20;43.87;;;20.73;;
40162;SDS011;25881;47.462;19.304;2023-02-10T04:04:45;47.47;;;24.40;;
40162;SDS011;25881;47.462;19.304;2023-02-10T04:07:10;47.03;;;22.73;;
40162;SDS011;25881;47.462;19.304;2023-02-10T04:09:36;51.97;;;25.42;;
40162;SDS011;25881;47.462;19.304;2023-02-10T04:12:01;57.83;;;27.52;;
40162;SDS011;25881;47.462;19.304;2023-02-10T04:14:26;53.77;;;25.50;;
40162;SDS011;25881;47.462;19.304;2023-02-10T04:16:52;52.97;;;24.75;;
40162;SDS011;25881;47.462;19.304;2023-02-10T04:19:17;54.97;;;26.67;;
40162;SDS011;25881;47.462;19.304;2023-02-10T04:21:43;50.35;;;24.35;;
40162;SDS011;25881;47.462;19.304;2023-02-10T04:24:08;48.08;;;24.00;;
40162;SDS011;25881;47.462;19.304;2023-02-10T04:26:33;44.42;;;22.85;;
40162;SDS011;25881;47.462;19.304;2023-02-10T04:28:58;48.30;;;21.47;;
40162;SDS011;25881;47.462;19.304;2023-02-10T04:31:24;48.53;;;23.42;;
40162;SDS011;25881;47.462;19.304;2023-02-10T04:33:49;48.53;;;23.00;;
40162;SDS011;25881;47.462;19.304;2023-02-10T04:36:15;48.40;;;22.83;;
40162;SDS011;25881;47.462;19.304;2023-02-10T04:38:40;48.37;;;25.57;;
40162;SDS011;25881;47.462;19.304;2023-02-10T04:41:05;55.30;;;27.33;;
40162;SDS011;25881;47.462;19.304;2023-02-10T04:43:31;50.35;;;25.70;;
40162;SDS011;25881;47.462;19.304;2023-02-10T04:45:56;56.05;;;28.27;;
40162;SDS011;25881;47.462;19.304;2023-02-10T04:48:22;53.92;;;27.73;;
40162;SDS011;25881;47.462;19.304;2023-02-10T04:50:47;55.30;;;27.73;;
40162;SDS011;25881;47.462;19.304;2023-02-10T04:53:12;79.73;;;35.53;;
40162;SDS011;25881;47.462;19.304;2023-02-10T04:55:38;68.37;;;31.27;;
40162;SDS011;25881;47.462;19.304;2023-02-10T04:58:03;96.03;;;40.75;;
40162;SDS011;25881;47.462;19.304;2023-02-10T05:00:28;100.15;;;40.72;;
40162;SDS011;25881;47.462;19.304;2023-02-10T05:02:54;96.80;;;40.25;;
40162;SDS011;25881;47.462;19.304;2023-02-10T05:05:19;111.07;;;46.33;;
40162;SDS011;25881;47.462;19.304;2023-02-10T05:07:45;88.13;;;37.30;;
40162;SDS011;25881;47.462;19.304;2023-02-10T05:10:10;77.57;;;34.90;;
40162;SDS011;25881;47.462;19.304;2023-02-10T05:12:36;71.88;;;32.83;;
40162;SDS011;25881;47.462;19.304;2023-02-10T05:15:01;65.55;;;30.10;;
40162;SDS011;25881;47.462;19.304;2023-02-10T05:17:26;66.95;;;32.65;;
40162;SDS011;25881;47.462;19.304;2023-02-10T05:19:51;65.33;;;31.73;;
40162;SDS011;25881;47.462;19.304;2023-02-10T05:22:17;69.80;;;31.10;;
40162;SDS011;25881;47.462;19.304;2023-02-10T05:24:42;60.93;;;30.80;;
40162;SDS011;25881;47.462;19.304;2023-02-10T05:27:07;64.55;;;32.47;;
40162;SDS011;25881;47.462;19.304;2023-02-10T05:29:32;57.27;;;29.73;;
40162;SDS011;25881;47.462;19.304;2023-02-10T05:31:58;61.47;;;30.08;;
40162;SDS011;25881;47.462;19.304;2023-02-10T05:34:23;61.93;;;30.47;;
40162;SDS011;25881;47.462;19.304;2023-02-10T05:36:48;64.25;;;32.60;;
40162;SDS011;25881;47.462;19.304;2023-02-10T05:39:15;74.32;;;35.70;;
40162;SDS011;25881;47.462;19.304;2023-02-10T05:41:53;66.88;;;32.78;;
40162;SDS011;25881;47.462;19.304;2023-02-10T05:44:18;61.03;;;30.48;;
40162;SDS011;25881;47.462;19.304;2023-02-10T05:46:44;62.58;;;28.20;;
40162;SDS011;25881;47.462;19.304;2023-02-10T05:49:09;52.43;;;25.90;;
40162;SDS011;25881;47.462;19.304;2023-02-10T05:51:34;54.17;;;28.30;;
40162;SDS011;25881;47.462;19.304;2023-02-10T05:53:59;57.43;;;28.90;;
40162;SDS011;25881;47.462;19.304;2023-02-10T05:56:25;56.50;;;27.20;;
40162;SDS011;25881;47.462;19.304;2023-02-10T05:58:50;55.00;;;26.27;;
40162;SDS011;25881;47.462;19.304;2023-02-10T06:01:15;54.47;;;26.00;;
40162;SDS011;25881;47.462;19.304;2023-02-10T06:03:41;57.75;;;29.45;;
40162;SDS011;25881;47.462;19.304;2023-02-10T06:06:06;57.22;;;28.38;;
40162;SDS011;25881;47.462;19.304;2023-02-10T06:08:31;55.25;;;26.30;;
40162;SDS011;25881;47.462;19.304;2023-02-10T06:10:57;55.70;;;27.77;;
40162;SDS011;25881;47.462;19.304;2023-02-10T06:13:22;63.28;;;30.90;;
40162;SDS011;25881;47.462;19.304;2023-02-10T06:15:47;60.40;;;29.13;;
40162;SDS011;25881;47.462;19.304;2023-02-10T06:18:12;66.27;;;32.37;;
40162;SDS011;25881;47.462;19.304;2023-02-10T06:20:38;63.22;;;32.85;;
40162;SDS011;25881;47.462;19.304;2023-02-10T06:23:03;67.63;;;31.80;;
40162;SDS011;25881;47.462;19.304;2023-02-10T06:25:28;62.73;;;29.80;;
40162;SDS011;25881;47.462;19.304;2023-02-10T06:27:53;71.93;;;32.90;;
40162;SDS011;25881;47.462;19.304;2023-02-10T06:30:19;56.30;;;28.57;;
40162;SDS011;25881;47.462;19.304;2023-02-10T06:32:44;64.05;;;31.65;;
40162;SDS011;25881;47.462;19.304;2023-02-10T06:35:09;68.70;;;34.33;;
40162;SDS011;25881;47.462;19.304;2023-02-10T06:37:35;73.43;;;37.30;;
40162;SDS011;25881;47.462;19.304;2023-02-10T06:40:01;79.20;;;37.30;;
40162;SDS011;25881;47.462;19.304;2023-02-10T06:42:26;84.50;;;35.67;;
40162;SDS011;25881;47.462;19.304;2023-02-10T06:44:51;81.97;;;34.03;;
40162;SDS011;25881;47.462;19.304;2023-02-10T06:47:17;86.27;;;35.83;;
40162;SDS011;25881;47.462;19.304;2023-02-10T06:49:42;68.63;;;32.40;;
40162;SDS011;25881;47.462;19.304;2023-02-10T06:52:07;74.90;;;34.88;;
40162;SDS011;25881;47.462;19.304;2023-02-10T06:54:32;72.60;;;35.40;;
40162;SDS011;25881;47.462;19.304;2023-02-10T06:56:58;79.07;;;39.92;;
40162;SDS011;25881;47.462;19.304;2023-02-10T06:59:23;89.88;;;44.88;;
40162;SDS011;25881;47.462;19.304;2023-02-10T07:01:49;90.07;;;44.67;;
40162;SDS011;25881;47.462;19.304;2023-02-10T07:04:14;88.75;;;44.83;;
40162;SDS011;25881;47.462;19.304;2023-02-10T07:06:39;90.53;;;45.70;;
40162;SDS011;25881;47.462;19.304;2023-02-10T07:09:04;96.17;;;48.97;;
40162;SDS011;25881;47.462;19.304;2023-02-10T07:11:30;106.70;;;53.60;;
40162;SDS011;25881;47.462;19.304;2023-02-10T07:13:56;94.07;;;47.35;;
40162;SDS011;25881;47.462;19.304;2023-02-10T07:16:21;88.35;;;45.58;;
40162;SDS011;25881;47.462;19.304;2023-02-10T07:18:46;78.47;;;38.72;;
40162;SDS011;25881;47.462;19.304;2023-02-10T07:21:11;80.65;;;38.55;;
40162;SDS011;25881;47.462;19.304;2023-02-10T07:23:37;76.28;;;36.80;;
40162;SDS011;25881;47.462;19.304;2023-02-10T07:26:03;68.68;;;34.80;;
40162;SDS011;25881;47.462;19.304;2023-02-10T07:28:29;71.30;;;36.92;;
40162;SDS011;25881;47.462;19.304;2023-02-10T07:30:54;73.68;;;38.15;;
40162;SDS011;25881;47.462;19.304;2023-02-10T07:33:20;77.97;;;38.80;;
40162;SDS011;25881;47.462;19.304;2023-02-10T07:35:45;72.30;;;37.57;;
40162;SDS011;25881;47.462;19.304;2023-02-10T07:38:10;73.77;;;36.90;;
40162;SDS011;25881;47.462;19.304;2023-02-10T07:40:36;71.05;;;34.83;;
40162;SDS011;25881;47.462;19.304;2023-02-10T07:43:01;76.05;;;37.20;;
40162;SDS011;25881;47.462;19.304;2023-02-10T07:45:26;71.68;;;35.00;;
40162;SDS011;25881;47.462;19.304;2023-02-10T07:47:52;79.57;;;37.92;;
40162;SDS011;25881;47.462;19.304;2023-02-10T07:50:17;84.47;;;42.90;;
40162;SDS011;25881;47.462;19.304;2023-02-10T07:52:42;80.80;;;39.05;;
40162;SDS011;25881;47.462;19.304;2023-02-10T07:55:08;77.20;;;37.88;;
40162;SDS011;25881;47.462;19.304;2023-02-10T07:57:34;76.82;;;38.65;;
40162;SDS011;25881;47.462;19.304;2023-02-10T07:59:59;75.73;;;37.63;;
40162;SDS011;25881;47.462;19.304;2023-02-10T08:02:24;79.10;;;37.57;;
40162;SDS011;25881;47.462;19.304;2023-02-10T08:04:50;78.65;;;40.05;;
40162;SDS011;25881;47.462;19.304;2023-02-10T08:07:19;79.05;;;40.13;;
40162;SDS011;25881;47.462;19.304;2023-02-10T08:09:44;82.35;;;41.97;;
40162;SDS011;25881;47.462;19.304;2023-02-10T08:12:09;74.67;;;38.20;;
40162;SDS011;25881;47.462;19.304;2023-02-10T08:14:34;70.10;;;34.17;;
40162;SDS011;25881;47.462;19.304;2023-02-10T08:17:00;73.00;;;37.00;;
40162;SDS011;25881;47.462;19.304;2023-02-10T08:19:25;69.33;;;36.80;;
40162;SDS011;25881;47.462;19.304;2023-02-10T08:21:50;74.22;;;38.53;;
40162;SDS011;25881;47.462;19.304;2023-02-10T08:24:16;76.93;;;39.72;;
40162;SDS011;25881;47.462;19.304;2023-02-10T08:26:41;69.00;;;36.33;;
40162;SDS011;25881;47.462;19.304;2023-02-10T08:29:07;92.72;;;44.20;;
40162;SDS011;25881;47.462;19.304;2023-02-10T08:31:32;89.82;;;43.47;;
40162;SDS011;25881;47.462;19.304;2023-02-10T08:33:57;86.27;;;42.70;;
40162;SDS011;25881;47.462;19.304;2023-02-10T08:36:23;82.83;;;42.87;;
40162;SDS011;25881;47.462;19.304;2023-02-10T08:38:48;93.30;;;44.30;;
40162;SDS011;25881;47.462;19.304;2023-02-10T08:41:15;84.95;;;42.50;;
40162;SDS011;25881;47.462;19.304;2023-02-10T08:43:40;87.70;;;43.80;;
40162;SDS011;25881;47.462;19.304;2023-02-10T08:46:05;99.72;;;48.28;;
40162;SDS011;25881;47.462;19.304;2023-02-10T08:48:32;93.05;;;47.53;;
40162;SDS011;25881;47.462;19.304;2023-02-10T08:50:57;103.15;;;50.97;;
40162;SDS011;25881;47.462;19.304;2023-02-10T08:53:23;96.00;;;49.00;;
40162;SDS011;25881;47.462;19.304;2023-02-10T08:55:56;96.80;;;49.17;;
40162;SDS011;25881;47.462;19.304;2023-02-10T08:58:21;92.72;;;46.40;;
40162;SDS011;25881;47.462;19.304;2023-02-10T09:00:47;98.97;;;48.08;;
40162;SDS011;25881;47.462;19.304;2023-02-10T09:03:12;99.45;;;49.17;;
40162;SDS011;25881;47.462;19.304;2023-02-10T09:05:37;94.07;;;47.93;;
40162;SDS011;25881;47.462;19.304;2023-02-10T09:08:02;94.03;;;48.83;;
40162;SDS011;25881;47.462;19.304;2023-02-10T09:10:29;102.28;;;49.28;;
40162;SDS011;25881;47.462;19.304;2023-02-10T09:12:54;90.75;;;45.33;;
40162;SDS011;25881;47.462;19.304;2023-02-10T09:15:19;89.18;;;46.85;;
40162;SDS011;25881;47.462;19.304;2023-02-10T09:17:44;91.10;;;47.93;;
40162;SDS011;25881;47.462;19.304;2023-02-10T09:20:10;94.33;;;48.40;;
40162;SDS011;25881;47.462;19.304;2023-02-10T09:22:36;99.80;;;48.78;;
40162;SDS011;25881;47.462;19.304;2023-02-10T09:25:01;91.83;;;45.43;;
40162;SDS011;25881;47.462;19.304;2023-02-10T09:27:27;96.07;;;46.90;;
40162;SDS011;25881;47.462;19.304;2023-02-10T09:29:52;98.00;;;48.95;;
40162;SDS011;25881;47.462;19.304;2023-02-10T09:32:17;95.37;;;48.30;;
40162;SDS011;25881;47.462;19.304;2023-02-10T09:34:42;92.97;;;46.63;;
40162;SDS011;25881;47.462;19.304;2023-02-10T09:37:09;93.95;;;47.65;;
40162;SDS011;25881;47.462;19.304;2023-02-10T09:39:35;80.70;;;42.10;;
40162;SDS011;25881;47.462;19.304;2023-02-10T09:44:39;75.30;;;36.80;;
40162;SDS011;25881;47.462;19.304;2023-02-10T09:55:16;69.63;;;35.33;;
40162;SDS011;25881;47.462;19.304;2023-02-10T09:57:49;63.95;;;33.28;;
40162;SDS011;25881;47.462;19.304;2023-02-10T10:02:49;75.43;;;37.85;;
40162;SDS011;25881;47.462;19.304;2023-02-10T10:07:55;58.10;;;28.27;;
40162;SDS011;25881;47.462;19.304;2023-02-10T10:10:27;55.90;;;28.57;;
40162;SDS011;25881;47.462;19.304;2023-02-10T10:12:55;56.63;;;28.63;;
40162;SDS011;25881;47.462;19.304;2023-02-10T10:15:21;58.13;;;28.57;;
40162;SDS011;25881;47.462;19.304;2023-02-10T10:18:01;57.63;;;27.83;;
40162;SDS011;25881;47.462;19.304;2023-02-10T10:28:22;50.85;;;24.63;;
40162;SDS011;25881;47.462;19.304;2023-02-10T10:33:30;43.33;;;21.65;;
40162;SDS011;25881;47.462;19.304;2023-02-10T10:35:56;44.83;;;22.80;;
40162;SDS011;25881;47.462;19.304;2023-02-10T10:38:29;43.72;;;23.35;;
40162;SDS011;25881;47.462;19.304;2023-02-10T10:40:55;40.67;;;21.30;;
40162;SDS011;25881;47.462;19.304;2023-02-10T10:43:24;40.70;;;19.63;;
40162;SDS011;25881;47.462;19.304;2023-02-10T10:45:52;44.42;;;23.92;;
40162;SDS011;25881;47.462;19.304;2023-02-10T10:48:21;40.25;;;21.42;;
40162;SDS011;25881;47.462;19.304;2023-02-10T10:50:55;55.17;;;24.55;;
40162;SDS011;25881;47.462;19.304;2023-02-10T10:53:29;46.22;;;25.35;;
40162;SDS011;25881;47.462;19.304;2023-02-10T10:55:58;43.80;;;22.65;;
40162;SDS011;25881;47.462;19.304;2023-02-10T10:58:39;47.17;;;24.45;;
40162;SDS011;25881;47.462;19.304;2023-02-10T11:01:05;50.00;;;25.70;;
40162;SDS011;25881;47.462;19.304;2023-02-10T11:03:31;51.60;;;26.20;;
40162;SDS011;25881;47.462;19.304;2023-02-10T11:05:58;46.97;;;23.38;;
40162;SDS011;25881;47.462;19.304;2023-02-10T11:08:28;50.80;;;25.70;;
40162;SDS011;25881;47.462;19.304;2023-02-10T11:10:55;56.88;;;28.98;;
40162;SDS011;25881;47.462;19.304;2023-02-10T11:13:23;49.30;;;24.83;;
40162;SDS011;25881;47.462;19.304;2023-02-10T11:15:57;47.28;;;25.02;;
40162;SDS011;25881;47.462;19.304;2023-02-10T11:18:23;44.28;;;23.95;;
40162;SDS011;25881;47.462;19.304;2023-02-10T11:20:55;45.67;;;22.38;;
40162;SDS011;25881;47.462;19.304;2023-02-10T11:23:21;45.60;;;23.73;;
40162;SDS011;25881;47.462;19.304;2023-02-10T11:25:47;36.50;;;19.77;;
40162;SDS011;25881;47.462;19.304;2023-02-10T11:28:20;37.67;;;19.63;;
40162;SDS011;25881;47.462;19.304;2023-02-10T11:30:46;57.67;;;24.17;;
40162;SDS011;25881;47.462;19.304;2023-02-10T11:33:18;39.50;;;20.75;;
40162;SDS011;25881;47.462;19.304;2023-02-10T11:35:48;37.30;;;21.23;;
40162;SDS011;25881;47.462;19.304;2023-02-10T11:38:16;39.13;;;21.23;;
40162;SDS011;25881;47.462;19.304;2023-02-10T11:40:52;39.88;;;20.58;;
40162;SDS011;25881;47.462;19.304;2023-02-10T11:43:18;37.10;;;19.08;;
40162;SDS011;25881;47.462;19.304;2023-02-10T11:45:51;33.17;;;18.33;;
40162;SDS011;25881;47.462;19.304;2023-02-10T11:48:17;34.38;;;18.88;;
40162;SDS011;25881;47.462;19.304;2023-02-10T11:50:43;36.38;;;17.58;;
40162;SDS011;25881;47.462;19.304;2023-02-10T11:53:24;33.88;;;16.55;;
40162;SDS011;25881;47.462;19.304;2023-02-10T11:55:52;37.17;;;17.67;;
40162;SDS011;25881;47.462;19.304;2023-02-10T12:01:17;29.00;;;15.75;;
40162;SDS011;25881;47.462;19.304;2023-02-10T12:06:27;28.33;;;13.52;;
40162;SDS011;25881;47.462;19.304;2023-02-10T12:14:31;31.67;;;17.17;;
40162;SDS011;25881;47.462;19.304;2023-02-10T12:19:39;30.67;;;16.97;;
40162;SDS011;25881;47.462;19.304;2023-02-10T12:30:02;30.48;;;16.80;;
40162;SDS011;25881;47.462;19.304;2023-02-10T12:37:40;26.70;;;14.37;;
40162;SDS011;25881;47.462;19.304;2023-02-10T12:48:32;29.23;;;15.52;;
40162;SDS011;25881;47.462;19.304;2023-02-10T12:53:35;24.33;;;12.90;;
40162;SDS011;25881;47.462;19.304;2023-02-10T12:58:38;25.27;;;13.07;;
40162;SDS011;25881;47.462;19.304;2023-02-10T13:03:37;27.30;;;14.55;;
40162;SDS011;25881;47.462;19.304;2023-02-10T13:08:48;24.77;;;13.13;;
40162;SDS011;25881;47.462;19.304;2023-02-10T13:11:17;26.08;;;14.60;;
40162;SDS011;25881;47.462;19.304;2023-02-10T13:13:44;21.45;;;12.63;;
40162;SDS011;25881;47.462;19.304;2023-02-10T13:16:18;32.85;;;14.77;;
40162;SDS011;25881;47.462;19.304;2023-02-10T13:21:22;25.65;;;13.82;;
40162;SDS011;25881;47.462;19.304;2023-02-10T13:26:37;32.22;;;15.13;;
40162;SDS011;25881;47.462;19.304;2023-02-10T13:34:19;27.77;;;14.00;;
40162;SDS011;25881;47.462;19.304;2023-02-10T13:36:46;32.40;;;16.52;;
40162;SDS011;25881;47.462;19.304;2023-02-10T13:39:18;29.80;;;15.27;;
40162;SDS011;25881;47.462;19.304;2023-02-10T13:41:45;27.70;;;15.52;;
40162;SDS011;25881;47.462;19.304;2023-02-10T13:44:19;28.45;;;15.27;;
40162;SDS011;25881;47.462;19.304;2023-02-10T13:46:46;30.00;;;15.50;;
40162;SDS011;25881;47.462;19.304;2023-02-10T13:49:15;34.97;;;17.25;;
40162;SDS011;25881;47.462;19.304;2023-02-10T13:51:42;31.27;;;15.55;;
40162;SDS011;25881;47.462;19.304;2023-02-10T13:54:22;27.25;;;15.32;;
40162;SDS011;25881;47.462;19.304;2023-02-10T13:56:52;28.95;;;15.20;;
40162;SDS011;25881;47.462;19.304;2023-02-10T14:01:49;30.58;;;16.85;;
40162;SDS011;25881;47.462;19.304;2023-02-10T14:06:52;25.08;;;15.07;;
40162;SDS011;25881;47.462;19.304;2023-02-10T14:09:19;27.23;;;15.63;;
40162;SDS011;25881;47.462;19.304;2023-02-10T14:11:45;26.88;;;14.75;;
40162;SDS011;25881;47.462;19.304;2023-02-10T14:21:45;32.00;;;17.33;;
40162;SDS011;25881;47.462;19.304;2023-02-10T14:24:15;35.28;;;16.33;;
40162;SDS011;25881;47.462;19.304;2023-02-10T14:26:42;28.73;;;16.35;;
40162;SDS011;25881;47.462;19.304;2023-02-10T14:29:10;30.98;;;17.10;;
40162;SDS011;25881;47.462;19.304;2023-02-10T14:31:38;30.40;;;16.85;;
40162;SDS011;25881;47.462;19.304;2023-02-10T14:34:05;31.90;;;15.65;;
40162;SDS011;25881;47.462;19.304;2023-02-10T14:36:31;29.02;;;14.98;;
40162;SDS011;25881;47.462;19.304;2023-02-10T14:38:58;30.45;;;17.48;;
40162;SDS011;25881;47.462;19.304;2023-02-10T14:41:23;27.50;;;16.70;;
40162;SDS011;25881;47.462;19.304;2023-02-10T14:43:50;29.25;;;16.77;;
40162;SDS011;25881;47.462;19.304;2023-02-10T14:46:27;31.98;;;17.08;;
40162;SDS011;25881;47.462;19.304;2023-02-10T14:48:57;36.85;;;17.77;;
40162;SDS011;25881;47.462;19.304;2023-02-10T14:51:25;30.45;;;17.85;;
40162;SDS011;25881;47.462;19.304;2023-02-10T14:53:51;29.95;;;16.88;;
40162;SDS011;25881;47.462;19.304;2023-02-10T14:56:22;29.77;;;16.30;;
40162;SDS011;25881;47.462;19.304;2023-02-10T14:58:47;29.90;;;16.92;;
40162;SDS011;25881;47.462;19.304;2023-02-10T15:01:29;31.35;;;18.08;;
40162;SDS011;25881;47.462;19.304;2023-02-10T15:03:55;33.28;;;17.48;;
40162;SDS011;25881;47.462;19.304;2023-02-10T15:06:23;33.95;;;17.05;;
40162;SDS011;25881;47.462;19.304;2023-02-10T15:08:54;29.90;;;17.23;;
40162;SDS011;25881;47.462;19.304;2023-02-10T15:11:25;33.63;;;17.67;;
40162;SDS011;25881;47.462;19.304;2023-02-10T15:17:06;31.17;;;16.90;;
40162;SDS011;25881;47.462;19.304;2023-02-10T15:19:33;37.15;;;18.45;;
40162;SDS011;25881;47.462;19.304;2023-02-10T15:21:59;37.05;;;18.85;;
40162;SDS011;25881;47.462;19.304;2023-02-10T15:24:28;32.33;;;16.95;;
40162;SDS011;25881;47.462;19.304;2023-02-10T15:26:54;36.58;;;18.25;;
40162;SDS011;25881;47.462;19.304;2023-02-10T15:29:20;41.80;;;19.38;;
40162;SDS011;25881;47.462;19.304;2023-02-10T15:31:56;41.10;;;18.30;;
40162;SDS011;25881;47.462;19.304;2023-02-10T15:34:23;32.72;;;17.73;;
40162;SDS011;25881;47.462;19.304;2023-02-10T15:36:49;38.53;;;20.00;;
40162;SDS011;25881;47.462;19.304;2023-02-10T15:39:17;34.53;;;18.75;;
40162;SDS011;25881;47.462;19.304;2023-02-10T15:46:40;36.58;;;19.83;;
40162;SDS011;25881;47.462;19.304;2023-02-10T15:49:13;39.55;;;20.50;;
40162;SDS011;25881;47.462;19.304;2023-02-10T15:51:41;42.83;;;22.30;;
40162;SDS011;25881;47.462;19.304;2023-02-10T15:54:08;50.00;;;22.15;;
40162;SDS011;25881;47.462;19.304;2023-02-10T15:56:36;39.90;;;22.80;;
40162;SDS011;25881;47.462;19.304;2023-02-10T15:59:02;49.60;;;23.70;;
40162;SDS011;25881;47.462;19.304;2023-02-10T16:01:27;56.70;;;24.55;;
40162;SDS011;25881;47.462;19.304;2023-02-10T16:03:53;52.80;;;25.63;;
40162;SDS011;25881;47.462;19.304;2023-02-10T16:06:18;49.65;;;26.25;;
40162;SDS011;25881;47.462;19.304;2023-02-10T16:08:44;49.13;;;25.50;;
40162;SDS011;25881;47.462;19.304;2023-02-10T16:11:10;57.60;;;26.40;;
40162;SDS011;25881;47.462;19.304;2023-02-10T16:13:35;49.42;;;25.92;;